Time;durP1;ratioP1;P1;durP2;ratioP2;P2;SDS_P1;SDS_P2;PMS_P1;PMS_P2;Temp;Humidity;BMP_temperature;BMP_pressure;BME280_temperature;BME280_humidity;BME280_pressure;Samples;Min_cycle;Max_cycle;Signal;HPM_P1;HPM_P2
2023/03/22 00:01:40;;;;;;;44.08;23.45;;;;;;;12.98;72.46;101201.06;6145731;23;20352;-83
2023/03/22 00:04:08;;;;;;;41.45;23.92;;;;;;;12.92;72.32;101197.13;6161314;23;20021;-80
2023/03/22 00:06:41;;;;;;;45.92;24.08;;;;;;;12.68;72.57;101146.03;6155394;23;20049;-80
2023/03/22 00:09:17;;;;;;;37.47;22.77;;;;;;;12.85;72.41;101158.69;6129779;23;20017;-85
2023/03/22 00:11:49;;;;;;;31.45;22.30;;;;;;;12.99;71.80;101182.28;6156719;23;20350;-83
2023/03/22 00:14:22;;;;;;;34.63;22.80;;;;;;;12.97;72.16;101168.25;6149925;23;20251;-85
2023/03/22 00:17:04;;;;;;;32.85;22.88;;;;;;;12.98;72.70;101191.22;6151885;23;20079;-82
2023/03/22 00:19:40;;;;;;;31.00;23.05;;;;;;;12.60;72.28;101136.91;6141585;23;20021;-84
2023/03/22 00:22:29;;;;;;;32.75;23.42;;;;;;;12.33;72.97;101099.41;6150211;23;20606;-83
2023/03/22 00:25:00;;;;;;;39.30;24.60;;;;;;;12.53;72.39;101138.44;6165424;23;20465;-83
2023/03/22 00:27:27;;;;;;;39.17;22.90;;;;;;;12.81;72.99;101184.75;6139866;23;20465;-83
2023/03/22 00:29:54;;;;;;;69.38;27.90;;;;;;;12.51;72.82;101135.06;6158069;23;20017;-83
2023/03/22 00:32:26;;;;;;;80.43;26.73;;;;;;;12.90;72.07;101167.09;6150092;23;20013;-81
2023/03/22 00:34:53;;;;;;;52.17;24.05;;;;;;;13.01;71.71;101182.97;6144913;23;20052;-82
2023/03/22 00:37:23;;;;;;;48.90;24.02;;;;;;;12.28;71.63;101059.03;6146190;23;20531;-85
2023/03/22 00:39:50;;;;;;;35.03;21.95;;;;;;;13.16;71.60;101195.91;6163182;23;20017;-84
2023/03/22 00:42:21;;;;;;;46.05;23.25;;;;;;;13.04;71.43;101185.38;6154454;23;20021;-80
2023/03/22 00:44:50;;;;;;;44.67;23.58;;;;;;;13.08;71.65;101191.25;6145003;23;20083;-83
2023/03/22 00:47:28;;;;;;;45.47;22.75;;;;;;;12.81;72.67;101158.09;6131156;23;20021;-84
2023/03/22 00:49:55;;;;;;;42.58;23.52;;;;;;;11.95;72.84;101037.94;6155369;23;20156;-82
2023/03/22 00:52:34;;;;;;;38.60;21.75;;;;;;;12.76;72.86;101164.84;6157052;23;20301;-81
2023/03/22 00:55:02;;;;;;;41.40;22.60;;;;;;;12.94;72.25;101170.34;6103007;23;20344;-81
2023/03/22 00:57:37;;;;;;;35.20;22.05;;;;;;;12.82;72.37;101166.97;6159880;23;20459;-80
2023/03/22 01:00:15;;;;;;;46.40;23.27;;;;;;;12.72;73.53;101168.75;6152433;23;20044;-80
2023/03/22 01:02:58;;;;;;;43.80;24.42;;;;;;;12.75;73.05;101179.16;6131235;23;20029;-83
2023/03/22 01:05:34;;;;;;;44.40;23.35;;;;;;;12.67;73.23;101165.66;6148918;23;20021;-84
2023/03/22 01:08:09;;;;;;;33.88;22.73;;;;;;;12.52;73.12;101154.53;6157489;23;20549;-83
2023/03/22 01:10:43;;;;;;;39.17;23.92;;;;;;;12.65;72.94;101172.97;6133943;23;20055;-82
2023/03/22 01:13:13;;;;;;;34.60;22.25;;;;;;;12.65;73.04;101162.31;6148612;23;20020;-80
2023/03/22 01:15:49;;;;;;;29.50;21.10;;;;;;;12.71;72.48;101145.75;6126507;23;20519;-81
2023/03/22 01:18:30;;;;;;;34.47;23.17;;;;;;;12.66;72.93;101142.66;6158656;23;20021;-82
2023/03/22 01:21:04;;;;;;;29.23;21.33;;;;;;;12.46;73.67;101115.97;6138232;23;20376;-81
2023/03/22 01:23:35;;;;;;;34.28;20.90;;;;;;;12.78;73.46;101160.22;6116972;23;20033;-82
2023/03/22 01:26:09;;;;;;;31.50;21.08;;;;;;;12.83;72.96;101165.97;6112373;23;20442;-83
2023/03/22 01:28:39;;;;;;;28.00;21.10;;;;;;;12.84;72.47;101151.69;6134072;23;20028;-81
2023/03/22 01:31:20;;;;;;;30.63;20.88;;;;;;;12.53;72.14;101090.50;6153713;23;20016;-82
2023/03/22 01:33:54;;;;;;;34.72;21.20;;;;;;;12.80;72.53;101142.28;6140743;23;20048;-82
2023/03/22 01:36:22;;;;;;;40.42;21.75;;;;;;;12.78;71.51;101110.44;6122430;23;20025;-81
2023/03/22 01:38:59;;;;;;;30.58;20.80;;;;;;;12.74;71.49;101129.50;6142311;23;20021;-82
2023/03/22 01:41:33;;;;;;;32.33;22.20;;;;;;;12.59;71.38;101111.22;6135524;23;20326;-81
2023/03/22 01:44:18;;;;;;;33.55;21.45;;;;;;;12.91;71.56;101146.63;6153417;23;20020;-83
2023/03/22 01:46:53;;;;;;;27.20;20.33;;;;;;;12.70;71.39;101118.28;6136104;23;20570;-83
2023/03/22 01:49:22;;;;;;;29.48;20.85;;;;;;;12.91;71.68;101147.47;6128157;23;20075;-80
2023/03/22 01:51:56;;;;;;;32.10;20.60;;;;;;;12.35;71.12;101054.84;6153398;23;20087;-83
2023/03/22 01:54:39;;;;;;;;;;;;;;;12.75;72.85;101144.50;6126679;23;20487;-81
2023/03/22 01:57:07;;;;;;;;;;;;;;;12.67;72.82;101152.31;6136882;23;20490;-83
2023/03/22 01:59:43;;;;;;;31.30;21.40;;;;;;;12.63;72.83;101154.44;6128124;23;19966;-82
2023/03/22 02:02:17;;;;;;;28.92;20.95;;;;;;;12.60;73.20;101149.38;6152983;23;20028;-82
2023/03/22 02:04:49;;;;;;;28.85;21.10;;;;;;;12.55;73.38;101140.97;6156737;23;20186;-82
2023/03/22 02:07:24;;;;;;;24.48;20.10;;;;;;;11.82;73.73;101037.31;6129859;23;20032;-83
2023/03/22 02:09:54;;;;;;;27.17;20.13;;;;;;;12.40;73.35;101143.13;6136035;23;20405;-81
2023/03/22 02:13:11;;;;;;;28.60;18.92;;;;;;;11.75;73.56;101039.66;6126924;23;20051;-82
2023/03/22 02:15:45;;;;;;;29.70;19.50;;;;;;;12.44;74.71;101139.25;6032909;23;20022;-82
2023/03/22 02:18:40;;;;;;;25.65;20.58;;;;;;;12.59;73.39;101147.69;6134882;23;20021;-82
2023/03/22 02:21:44;;;;;;;22.02;17.98;;;;;;;12.57;73.26;101142.50;6136987;23;20017;-82
2023/03/22 02:24:54;;;;;;;28.90;19.20;;;;;;;12.66;72.78;101142.66;6140862;23;20034;-82
2023/03/22 02:27:22;;;;;;;26.90;18.95;;;;;;;12.58;72.83;101128.22;6158369;23;20540;-82
2023/03/22 02:30:03;;;;;;;24.73;18.38;;;;;;;12.11;73.84;101073.81;6125250;23;20024;-82
2023/03/22 02:32:37;;;;;;;24.38;18.75;;;;;;;12.39;73.62;101123.66;6119222;23;20020;-86
2023/03/22 02:35:32;;;;;;;28.02;19.17;;;;;;;12.36;73.37;101131.09;6129764;23;20035;-82
2023/03/22 02:38:28;;;;;;;21.98;17.45;;;;;;;12.40;73.71;101140.47;6128982;23;20361;-83
2023/03/22 02:41:13;;;;;;;29.40;18.98;;;;;;;12.00;74.05;101077.44;6141825;23;20052;-82
2023/03/22 02:43:46;;;;;;;30.50;19.80;;;;;;;11.39;73.93;100982.50;6157555;23;20396;-82
2023/03/22 02:46:31;;;;;;;29.67;20.10;;;;;;;12.05;73.81;101096.50;6116051;23;20300;-83
2023/03/22 02:49:13;;;;;;;30.90;18.70;;;;;;;12.07;74.46;101078.59;6127440;23;20025;-82
2023/03/22 02:51:54;;;;;;;24.45;18.55;;;;;;;12.14;74.59;101094.88;6120883;23;20048;-82
2023/03/22 02:54:37;;;;;;;26.85;18.08;;;;;;;12.14;74.84;101100.19;6124535;23;20396;-80
2023/03/22 02:57:08;;;;;;;24.65;16.42;;;;;;;12.34;74.55;101139.22;6116823;23;20334;-83
2023/03/22 02:59:40;;;;;;;28.17;18.90;;;;;;;12.28;73.61;101131.78;6160373;23;20021;-82
2023/03/22 03:02:13;;;;;;;23.10;16.65;;;;;;;12.31;74.55;101134.16;6134280;23;20389;-82
2023/03/22 03:04:45;;;;;;;26.80;18.00;;;;;;;12.43;74.27;101136.69;6138164;23;20451;-85
2023/03/22 03:07:27;;;;;;;21.08;16.67;;;;;;;12.43;73.29;101116.25;6129674;23;20282;-81
2023/03/22 03:09:58;;;;;;;25.45;17.13;;;;;;;12.51;72.61;101118.25;6128433;23;20163;-82
2023/03/22 03:12:29;;;;;;;26.00;17.95;;;;;;;12.00;73.47;101045.50;6109448;23;20017;-83
2023/03/22 03:14:58;;;;;;;23.38;16.85;;;;;;;12.39;73.60;101125.50;6119005;23;20668;-83
2023/03/22 03:18:16;;;;;;;23.85;16.67;;;;;;;12.43;72.62;101116.25;6138088;23;20024;-83
2023/03/22 03:21:13;;;;;;;24.92;17.15;;;;;;;12.45;73.58;101145.41;6077305;23;20021;-84
2023/03/22 03:24:02;;;;;;;25.52;16.60;;;;;;;12.02;73.95;101080.81;6156194;23;20021;-79
2023/03/22 03:26:59;;;;;;;22.85;17.38;;;;;;;12.24;73.71;101126.84;6135249;23;20343;-83
2023/03/22 03:29:40;;;;;;;23.88;17.05;;;;;;;12.34;73.73;101157.00;6162066;23;20231;-84
2023/03/22 03:32:24;;;;;;;25.30;16.98;;;;;;;12.28;73.45;101150.41;6137876;23;20053;-79
2023/03/22 03:34:58;;;;;;;21.98;16.73;;;;;;;12.24;74.19;101150.81;6161481;23;20449;-86
2023/03/22 03:37:43;;;;;;;18.25;15.00;;;;;;;12.30;73.82;101143.09;6136166;23;20404;-79
2023/03/22 03:40:35;;;;;;;20.58;15.68;;;;;;;12.29;73.73;101138.78;6128346;23;20405;-81
2023/03/22 03:43:07;;;;;;;21.48;17.23;;;;;;;12.28;74.36;101149.53;6156337;23;20790;-82
2023/03/22 03:45:54;;;;;;;23.90;16.75;;;;;;;12.22;74.61;101139.44;6124034;23;20025;-83
2023/03/22 03:48:29;;;;;;;20.38;15.85;;;;;;;11.86;75.25;101091.91;6144671;23;20064;-80
2023/03/22 03:50:59;;;;;;;21.58;16.65;;;;;;;12.18;74.87;101155.69;6149316;23;20017;-82
2023/03/22 03:53:26;;;;;;;23.75;16.45;;;;;;;12.11;74.55;101129.72;6124114;23;20025;-82
2023/03/22 03:55:56;;;;;;;24.23;16.33;;;;;;;12.15;73.79;101131.97;6127220;23;20105;-83
2023/03/22 03:58:23;;;;;;;25.77;17.33;;;;;;;12.38;73.33;101158.44;6134948;23;20048;-81
2023/03/22 04:00:50;;;;;;;27.33;18.02;;;;;;;12.06;73.29;101118.63;6127647;23;20088;-82
2023/03/22 04:03:17;;;;;;;20.45;15.65;;;;;;;12.27;74.48;101155.84;6126910;23;20028;-82
2023/03/22 04:05:45;;;;;;;20.75;15.32;;;;;;;11.64;74.00;101057.50;6150959;23;20064;-84
2023/03/22 04:08:12;;;;;;;28.40;17.60;;;;;;;12.14;74.03;101158.75;6158565;23;20358;-84
2023/03/22 04:10:39;;;;;;;23.42;16.38;;;;;;;12.17;73.72;101169.97;6160748;23;20021;-82
2023/03/22 04:13:12;;;;;;;24.65;16.23;;;;;;;12.11;74.17;101181.16;6124786;23;20317;-81
2023/03/22 04:15:39;;;;;;;21.75;16.55;;;;;;;12.09;74.56;101177.78;6156378;23;20093;-83
2023/03/22 04:18:12;;;;;;;22.80;16.20;;;;;;;12.10;74.53;101179.44;6157822;23;20017;-80
2023/03/22 04:20:40;;;;;;;22.77;16.23;;;;;;;12.11;74.71;101186.47;6154602;23;20311;-83
2023/03/22 04:23:13;;;;;;;23.80;16.95;;;;;;;12.13;75.33;101189.81;6133268;23;20806;-79
2023/03/22 04:25:49;;;;;;;21.40;16.77;;;;;;;11.84;75.31;101147.06;6156447;23;20040;-83
2023/03/22 04:28:18;;;;;;;22.45;16.40;;;;;;;11.98;74.53;101168.03;6141036;23;20108;-83
2023/03/22 04:30:51;;;;;;;25.02;16.25;;;;;;;11.89;74.60;101150.22;6158898;23;20021;-82
2023/03/22 04:33:22;;;;;;;27.13;16.15;;;;;;;12.17;74.51;101183.25;6158467;23;20031;-83
2023/03/22 04:35:49;;;;;;;22.73;16.60;;;;;;;12.02;74.46;101142.03;6153514;23;20013;-82
2023/03/22 04:38:24;;;;;;;23.98;16.85;;;;;;;12.19;73.55;101157.38;6154564;23;20380;-83
2023/03/22 04:40:57;;;;;;;23.65;16.85;;;;;;;12.19;73.24;101162.69;6127410;23;20346;-83
2023/03/22 04:43:27;;;;;;;29.75;15.73;;;;;;;12.27;73.48;101164.69;6164571;23;20021;-83
2023/03/22 04:46:00;;;;;;;25.30;17.05;;;;;;;12.37;73.42;101181.53;6166425;23;20330;-83
2023/03/22 04:48:28;;;;;;;33.85;19.98;;;;;;;12.31;73.48;101175.91;6159983;23;20024;-82
2023/03/22 04:50:56;;;;;;;23.20;17.48;;;;;;;12.07;74.54;101141.63;6145101;23;20075;-82
2023/03/22 04:53:26;;;;;;;32.28;20.35;;;;;;;11.93;74.07;101142.81;6132679;23;20017;-80
2023/03/22 04:55:55;;;;;;;;;;;;;;;12.09;74.04;101169.78;6137824;23;20028;-84
2023/03/22 04:58:24;;;;;;;22.55;16.95;;;;;;;12.25;73.84;101179.94;6119606;23;19991;-80
2023/03/22 05:01:01;;;;;;;21.98;16.25;;;;;;;12.15;74.68;101192.38;6154281;23;20021;-83
2023/03/22 05:03:33;;;;;;;25.75;17.77;;;;;;;12.01;74.70;101166.94;6150843;23;20063;-83
2023/03/22 05:06:02;;;;;;;34.97;17.40;;;;;;;12.09;74.33;101176.94;6127167;23;20270;-83
2023/03/22 05:08:33;;;;;;;28.75;17.52;;;;;;;12.25;73.42;101168.44;6128294;23;20028;-82
2023/03/22 05:11:15;;;;;;;31.73;17.75;;;;;;;11.66;73.68;101096.28;6116767;23;20025;-83
2023/03/22 05:13:45;;;;;;;28.77;17.52;;;;;;;12.18;74.01;101184.97;6161538;23;20468;-82
2023/03/22 05:16:15;;;;;;;19.98;16.20;;;;;;;11.83;74.47;101150.69;6133059;23;20021;-84
2023/03/22 05:18:44;;;;;;;24.10;16.10;;;;;;;12.19;74.24;101197.28;6140899;23;20383;-84
2023/03/22 05:21:20;;;;;;;28.58;18.23;;;;;;;11.77;73.91;101130.81;6135632;23;20301;-83
2023/03/22 05:23:51;;;;;;;25.15;16.17;;;;;;;12.09;74.64;101190.25;6162287;23;20044;-81
2023/03/22 05:26:25;;;;;;;29.15;17.65;;;;;;;11.20;74.78;101062.97;6167076;23;20116;-84
2023/03/22 05:28:56;;;;;;;26.98;16.83;;;;;;;12.04;75.75;101201.28;6109762;23;20083;-85
2023/03/22 05:31:23;;;;;;;27.00;18.15;;;;;;;11.89;75.26;101181.28;6161306;23;20021;-84
2023/03/22 05:33:55;;;;;;;28.55;17.90;;;;;;;11.12;75.43;101045.03;6142574;23;20017;-86
2023/03/22 05:36:35;;;;;;;32.47;19.35;;;;;;;11.69;74.29;101127.94;6164991;23;20091;-84
2023/03/22 05:39:13;;;;;;;30.17;19.38;;;;;;;11.91;74.85;101164.22;6135138;23;20025;-82
2023/03/22 05:41:55;;;;;;;23.48;17.67;;;;;;;12.00;74.70;101193.69;6123574;23;20087;-81
2023/03/22 05:44:24;;;;;;;50.95;21.80;;;;;;;12.17;74.83;101209.03;6130287;23;20021;-84
2023/03/22 05:46:51;;;;;;;39.55;20.00;;;;;;;12.17;74.29;101212.53;6134788;23;20025;-82
2023/03/22 05:49:18;;;;;;;35.90;19.92;;;;;;;12.05;75.19;101197.63;6156301;23;20020;-81
2023/03/22 05:51:47;;;;;;;41.28;20.83;;;;;;;12.27;74.36;101222.41;6122594;23;20017;-83
2023/03/22 05:54:15;;;;;;;32.08;19.77;;;;;;;11.98;73.86;101172.53;6129130;23;20067;-83
2023/03/22 05:56:50;;;;;;;38.10;20.55;;;;;;;11.93;74.81;101172.06;6162770;23;20492;-80
2023/03/22 05:59:21;;;;;;;34.15;19.92;;;;;;;11.96;74.36;101174.47;6138219;23;20393;-84
2023/03/22 06:01:48;;;;;;;35.47;20.67;;;;;;;11.54;74.79;101110.63;6152298;23;20698;-83
2023/03/22 06:04:15;;;;;;;33.53;25.13;;;;;;;11.31;74.22;101070.91;6140324;23;20031;-84
2023/03/22 06:06:41;;;;;;;35.05;19.67;;;;;;;11.57;74.32;101117.50;6143776;23;20084;-82
2023/03/22 06:09:11;;;;;;;30.73;21.48;;;;;;;12.04;74.32;101190.63;6140463;23;20376;-80
2023/03/22 06:11:43;;;;;;;31.27;20.88;;;;;;;12.25;74.35;101227.00;6156095;23;20021;-83
2023/03/22 06:14:10;;;;;;;44.05;20.95;;;;;;;11.51;74.30;101097.59;6158447;23;20021;-85
2023/03/22 06:16:38;;;;;;;27.70;19.42;;;;;;;12.31;74.34;101222.00;6122380;23;20027;-84
2023/03/22 06:19:05;;;;;;;33.88;21.88;;;;;;;12.16;74.37;101194.03;6125510;23;20025;-81
2023/03/22 06:21:39;;;;;;;42.35;21.33;;;;;;;12.40;73.73;101225.69;6161894;23;20313;-80
2023/03/22 06:24:09;;;;;;;32.83;19.92;;;;;;;12.25;74.46;101192.41;6162171;23;20080;-79
2023/03/22 06:26:36;;;;;;;29.92;20.70;;;;;;;12.23;73.92;101186.38;6137478;23;20036;-81
2023/03/22 06:29:07;;;;;;;38.15;22.15;;;;;;;12.00;73.63;101145.78;6154669;23;20021;-81
2023/03/22 06:31:34;;;;;;;27.48;18.98;;;;;;;12.05;73.46;101144.41;6124858;23;20154;-81
2023/03/22 06:34:04;;;;;;;38.13;21.60;;;;;;;11.95;72.92;101114.25;6159243;23;20079;-79
2023/03/22 06:36:34;;;;;;;32.17;20.85;;;;;;;12.56;72.19;101202.06;6159212;23;20503;-81
2023/03/22 06:39:07;;;;;;;44.67;22.00;;;;;;;12.68;72.07;101217.97;6126589;23;20029;-82
2023/03/22 06:41:41;;;;;;;37.33;19.75;;;;;;;12.66;71.35;101196.78;6145062;23;20088;-82
2023/03/22 06:44:08;;;;;;;40.90;21.30;;;;;;;12.86;71.93;101218.97;6129473;23;20032;-80
2023/03/22 06:46:35;;;;;;;34.55;20.58;;;;;;;12.91;71.19;101221.25;6138781;23;20100;-80
2023/03/22 06:49:05;;;;;;;31.98;20.50;;;;;;;12.78;72.19;101195.69;6154780;23;20391;-79
2023/03/22 06:51:35;;;;;;;38.92;21.95;;;;;;;12.92;71.17;101215.78;6142379;23;20025;-81
2023/03/22 06:54:02;;;;;;;34.47;22.63;;;;;;;13.01;70.11;101206.97;6128758;23;20020;-81
2023/03/22 06:56:28;;;;;;;36.72;22.67;;;;;;;13.04;69.83;101203.19;6164010;23;20599;-81
2023/03/22 06:58:56;;;;;;;27.38;21.65;;;;;;;13.25;70.62;101235.03;6166808;23;20344;-82
2023/03/22 07:01:24;;;;;;;31.83;22.60;;;;;;;12.84;69.26;101165.00;6159401;23;20607;-80
2023/03/22 07:03:51;;;;;;;28.17;21.25;;;;;;;13.32;69.38;101241.53;6131751;23;20029;-83
2023/03/22 07:06:17;;;;;;;34.20;22.75;;;;;;;12.02;68.86;101011.63;6138974;23;20021;-83
2023/03/22 07:08:44;;;;;;;33.95;21.80;;;;;;;12.52;68.11;101094.13;6163441;23;20548;-81
2023/03/22 07:11:18;;;;;;;37.97;23.48;;;;;;;12.77;68.69;101124.75;6144814;23;20388;-84
2023/03/22 07:13:51;;;;;;;37.05;22.75;;;;;;;13.61;68.55;101252.22;6132781;23;20400;-81
2023/03/22 07:16:20;;;;;;;32.78;22.33;;;;;;;13.64;68.10;101243.09;6124892;23;20021;-81
2023/03/22 07:19:17;;;;;;;33.28;22.67;;;;;;;13.39;68.07;101184.00;6170248;23;20021;-82
2023/03/22 07:21:58;;;;;;;29.90;21.20;;;;;;;13.83;67.52;101253.75;6156762;23;20500;-82
2023/03/22 07:24:25;;;;;;;41.63;22.27;;;;;;;13.89;67.76;101247.88;6162136;23;20084;-83
2023/03/22 07:26:51;;;;;;;33.17;21.50;;;;;;;12.56;67.58;101031.63;6159867;23;20033;-82
2023/03/22 07:29:18;;;;;;;34.42;23.45;;;;;;;13.31;67.18;101149.22;6161287;23;20049;-83
2023/03/22 07:31:45;;;;;;;33.88;23.85;;;;;;;14.07;66.61;101253.31;6157392;23;20080;-84
2023/03/22 07:34:12;;;;;;;34.85;23.23;;;;;;;14.04;66.02;101242.09;6146643;23;20075;-84
2023/03/22 07:36:42;;;;;;;32.83;21.15;;;;;;;13.82;66.08;101201.38;6170509;23;20025;-83
2023/03/22 07:39:10;;;;;;;32.63;21.55;;;;;;;14.16;65.68;101240.09;6162083;23;20227;-80
2023/03/22 07:41:46;;;;;;;34.50;22.33;;;;;;;13.93;65.17;101191.53;6153310;23;20564;-81
2023/03/22 07:44:19;;;;;;;35.85;22.88;;;;;;;14.02;64.71;101196.00;6153525;23;20388;-83
2023/03/22 07:46:47;;;;;;;39.40;22.80;;;;;;;13.82;64.51;101150.69;6141885;23;20182;-82
2023/03/22 07:49:17;;;;;;;28.05;20.45;;;;;;;14.50;63.48;101249.28;6154202;23;20358;-80
2023/03/22 07:51:44;;;;;;;28.65;18.23;;;;;;;14.19;63.33;101171.22;6150360;23;20033;-82
2023/03/22 07:54:10;;;;;;;27.15;17.40;;;;;;;14.55;62.78;101227.50;6154935;23;20027;-83
2023/03/22 07:56:54;;;;;;;29.00;17.63;;;;;;;14.68;62.87;101252.03;6147763;23;20017;-79
2023/03/22 07:59:22;;;;;;;28.77;15.75;;;;;;;14.66;62.84;101227.31;6127755;23;20017;-82
2023/03/22 08:01:49;;;;;;;29.77;15.68;;;;;;;14.84;62.95;101250.56;6158695;23;20031;-82
2023/03/22 08:04:15;;;;;;;25.27;13.60;;;;;;;14.20;61.82;101119.53;6154143;23;20025;-83
2023/03/22 08:06:45;;;;;;;19.02;12.85;;;;;;;15.05;61.45;101243.16;6135149;23;20029;-81
2023/03/22 08:09:21;;;;;;;21.95;13.15;;;;;;;14.90;60.76;101208.06;6129429;23;20024;-81
2023/03/22 08:11:50;;;;;;;19.02;14.07;;;;;;;15.14;60.50;101258.28;6123492;23;20706;-81
2023/03/22 08:14:27;;;;;;;21.83;14.45;;;;;;;14.47;60.09;101133.88;6154783;23;20020;-81
2023/03/22 08:17:05;;;;;;;26.42;14.40;;;;;;;15.03;60.62;101245.13;6123746;23;20392;-79
2023/03/22 08:19:32;;;;;;;21.45;16.05;;;;;;;15.17;60.83;101252.63;6123108;23;20021;-81
2023/03/22 08:21:59;;;;;;;29.33;16.35;;;;;;;15.26;60.33;101260.75;6123274;23;20021;-81
2023/03/22 08:24:29;;;;;;;31.70;16.02;;;;;;;15.24;60.36;101246.66;6133233;23;20112;-80
2023/03/22 08:26:57;;;;;;;23.83;16.88;;;;;;;15.29;60.61;101260.44;6163573;23;20056;-81
2023/03/22 08:29:51;;;;;;;23.58;16.95;;;;;;;15.30;59.77;101265.66;6154555;23;20025;-79
2023/03/22 08:32:18;;;;;;;25.70;17.08;;;;;;;14.72;60.61;101167.91;6125390;23;20021;-80
2023/03/22 08:35:07;;;;;;;25.13;16.23;;;;;;;15.32;60.12;101265.50;6118755;23;20048;-80
2023/03/22 08:37:34;;;;;;;23.50;17.30;;;;;;;15.36;60.50;101274.88;6130780;23;20020;-79
2023/03/22 08:40:10;;;;;;;26.05;17.08;;;;;;;15.41;60.23;101261.91;6120934;23;20021;-80
2023/03/22 08:42:39;;;;;;;27.85;17.33;;;;;;;14.37;60.00;101087.66;6151864;23;20021;-79
2023/03/22 08:45:07;;;;;;;21.10;16.73;;;;;;;15.48;59.76;101254.09;6114059;23;20106;-79
2023/03/22 08:47:38;;;;;;;23.40;17.10;;;;;;;15.41;59.65;101240.50;6146274;23;20333;-80
2023/03/22 08:50:06;;;;;;;27.25;16.48;;;;;;;14.87;59.69;101138.00;6153834;23;20032;-82
2023/03/22 08:52:35;;;;;;;24.45;17.27;;;;;;;14.31;59.30;101049.88;6133619;23;20079;-80
2023/03/22 08:55:05;;;;;;;27.02;17.48;;;;;;;15.66;59.40;101270.19;6127421;23;20112;-80
2023/03/22 08:57:31;;;;;;;24.00;17.55;;;;;;;15.71;59.02;101265.25;6132362;23;20037;-79
2023/03/22 09:00:10;;;;;;;29.13;18.08;;;;;;;15.76;59.35;101265.63;6160643;23;20462;-81
2023/03/22 09:02:36;;;;;;;29.67;19.30;;;;;;;14.46;58.98;101041.34;6152660;23;20349;-80
2023/03/22 09:05:07;;;;;;;25.52;17.90;;;;;;;15.38;59.05;101171.25;6121876;23;20362;-81
2023/03/22 09:07:38;;;;;;;25.48;18.33;;;;;;;15.45;59.23;101174.97;6129926;23;20021;-81
2023/03/22 09:10:07;;;;;;;28.73;18.10;;;;;;;15.40;58.76;101166.59;6076195;23;20026;-80
2023/03/22 09:12:34;;;;;;;25.75;18.08;;;;;;;15.45;58.46;101158.94;6109675;23;20018;-80
2023/03/22 09:15:06;;;;;;;30.30;18.52;;;;;;;14.91;57.87;101064.53;6128395;23;20014;-83
2023/03/22 09:18:00;;;;;;;26.48;19.25;;;;;;;15.79;58.04;101190.34;6123391;23;20026;-83
2023/03/22 09:20:50;;;;;;;32.80;19.05;;;;;;;16.36;58.24;101265.72;6136989;23;20094;-84
2023/03/22 09:23:18;;;;;;;37.80;24.95;;;;;;;16.45;58.10;101280.84;6103724;23;20104;-83
2023/03/22 09:25:45;;;;;;;38.40;22.75;;;;;;;16.45;58.38;101272.78;6102509;23;20025;-85
2023/03/22 09:28:45;;;;;;;36.75;26.20;;;;;;;16.30;59.25;101207.41;6130997;23;20387;-82
2023/03/22 09:31:13;;;;;;;36.78;26.85;;;;;;;16.95;58.18;101267.72;6135233;23;20379;-82
2023/03/22 09:33:49;;;;;;;39.72;26.42;;;;;;;15.84;57.80;101048.81;6124658;23;20018;-83
2023/03/22 09:36:19;;;;;;;36.85;24.35;;;;;;;17.07;57.48;101261.06;6095933;23;20508;-83
2023/03/22 09:38:48;;;;;;;39.22;26.05;;;;;;;17.25;56.68;101260.94;6123803;23;20027;-81
2023/03/22 09:41:59;;;;;;;40.63;26.77;;;;;;;17.47;57.16;101271.03;6094700;23;20033;-82
2023/03/22 09:44:32;;;;;;;39.75;26.92;;;;;;;17.12;56.89;101197.03;6077908;23;20088;-82
2023/03/22 09:47:04;;;;;;;36.80;26.48;;;;;;;17.03;56.50;101174.69;6104791;23;20599;-84
2023/03/22 09:49:39;;;;;;;37.80;25.38;;;;;;;17.46;56.13;101237.16;6095136;23;20045;-84
2023/03/22 09:52:19;;;;;;;39.10;26.45;;;;;;;17.59;56.00;101231.28;6102133;23;20032;-81
2023/03/22 09:54:51;;;;;;;34.60;24.20;;;;;;;17.32;56.35;101161.84;6110166;23;20026;-84
2023/03/22 09:57:19;;;;;;;36.45;26.23;;;;;;;18.15;56.07;101267.22;6107851;23;20275;-85
2023/03/22 09:59:57;;;;;;;36.47;26.45;;;;;;;18.36;54.73;101269.38;6109398;23;20040;-81
2023/03/22 10:02:35;;;;;;;35.05;24.63;;;;;;;18.03;54.69;101196.03;6107635;23;20657;-82
2023/03/22 10:05:11;;;;;;;32.53;23.55;;;;;;;18.14;54.26;101201.06;6106094;23;20048;-83
2023/03/22 10:07:53;;;;;;;38.50;24.88;;;;;;;18.68;54.33;101266.78;6125839;23;20022;-83
2023/03/22 10:10:22;;;;;;;29.88;23.23;;;;;;;18.38;53.92;101198.50;6104930;23;20029;-80
2023/03/22 10:13:23;;;;;;;34.63;23.52;;;;;;;19.01;53.03;101264.81;6102211;23;20037;-82
2023/03/22 10:15:57;;;;;;;34.40;24.60;;;;;;;19.09;53.26;101262.06;6110003;23;20088;-83
2023/03/22 10:18:39;;;;;;;32.33;23.90;;;;;;;19.28;53.73;101262.66;6120205;23;20025;-80
2023/03/22 10:21:26;;;;;;;36.95;24.35;;;;;;;19.08;52.98;101211.13;6091883;23;20516;-83
2023/03/22 10:24:19;;;;;;;34.83;24.58;;;;;;;19.30;52.21;101229.16;6121135;23;20083;-83
2023/03/22 10:26:56;;;;;;;28.13;19.90;;;;;;;19.66;51.60;101258.19;6098676;23;20021;-82
2023/03/22 10:29:31;;;;;;;35.45;23.83;;;;;;;18.97;51.46;101115.50;6123984;23;20221;-83
2023/03/22 10:32:37;;;;;;;31.85;23.05;;;;;;;19.93;51.74;101231.72;6127497;23;20295;-81
2023/03/22 10:35:24;;;;;;;31.33;22.52;;;;;;;20.20;50.86;101239.22;6113887;23;20105;-82
2023/03/22 10:37:58;;;;;;;30.73;23.33;;;;;;;20.20;50.35;101228.44;6096959;23;20044;-82
2023/03/22 10:40:30;;;;;;;33.70;21.25;;;;;;;20.11;49.71;101194.50;6125512;23;20053;-82
2023/03/22 10:43:38;;;;;;;;;;;;;;;20.18;49.43;101187.34;6118772;23;20022;-84
2023/03/22 10:46:38;;;;;;;32.58;22.80;;;;;;;20.74;49.05;101251.59;6029090;23;19917;-84
2023/03/22 10:49:28;;;;;;;27.38;21.70;;;;;;;20.88;49.38;101236.44;6083041;23;20720;-82
2023/03/22 10:52:16;;;;;;;30.67;23.48;;;;;;;20.97;48.90;101223.66;6123694;23;20338;-80
2023/03/22 10:54:49;;;;;;;31.20;22.85;;;;;;;20.91;49.41;101209.88;6121883;23;20453;-83
2023/03/22 10:57:19;;;;;;;31.02;22.77;;;;;;;20.95;49.23;101202.25;6097886;23;20272;-82
2023/03/22 10:59:59;;;;;;;28.58;21.83;;;;;;;20.90;48.93;101154.25;6092666;23;20419;-84
2023/03/22 11:02:30;;;;;;;33.97;21.83;;;;;;;21.15;47.39;101155.75;6101145;23;20018;-84
2023/03/22 11:05:04;;;;;;;30.75;20.98;;;;;;;21.47;47.96;101193.06;6162200;23;20044;-83
2023/03/22 11:07:43;;;;;;;25.90;20.48;;;;;;;21.11;46.88;101096.72;6154497;23;20843;-83
2023/03/22 11:10:26;;;;;;;24.70;16.10;;;;;;;21.21;45.64;101069.41;6144993;23;20032;-83
2023/03/22 11:13:15;;;;;;;20.90;14.70;;;;;;;21.84;43.94;101152.41;6152808;23;20027;-84
2023/03/22 11:16:03;;;;;;;22.10;14.82;;;;;;;22.51;42.58;101216.72;6155937;23;20100;-82
2023/03/22 11:18:46;;;;;;;18.75;13.30;;;;;;;22.64;42.54;101215.09;6151121;23;20529;-83
2023/03/22 11:21:16;;;;;;;18.35;14.40;;;;;;;22.78;43.01;101214.94;6160118;23;20410;-83
2023/03/22 11:23:58;;;;;;;18.25;14.20;;;;;;;22.99;41.74;101207.78;6149020;23;20388;-83
2023/03/22 11:26:36;;;;;;;18.25;13.95;;;;;;;22.65;41.04;101147.25;6143498;23;20032;-81
2023/03/22 11:29:17;;;;;;;15.75;12.35;;;;;;;23.12;40.52;101191.56;6161444;23;20279;-83
2023/03/22 11:31:57;;;;;;;24.33;12.98;;;;;;;23.10;39.97;101144.88;6178281;23;20020;-83
2023/03/22 11:34:30;;;;;;;15.75;11.38;;;;;;;23.40;39.24;101193.25;6139277;23;20017;-82
2023/03/22 11:37:06;;;;;;;17.25;11.55;;;;;;;22.76;39.48;101092.53;6155098;23;20076;-82
2023/03/22 11:39:57;;;;;;;19.00;13.45;;;;;;;23.32;40.47;101188.06;6154128;23;20555;-81
2023/03/22 11:42:26;;;;;;;18.50;14.43;;;;;;;23.49;40.77;101200.16;6141530;23;20017;-80
2023/03/22 11:44:55;;;;;;;16.50;12.73;;;;;;;23.48;40.10;101195.78;6133544;23;20025;-82